Copemish, Michigan
Current Conditions -  °F | °C
As of 9:11 PM on Saturday 25 Oct 2014 (Local Time) from KFKS Reporting Station
Clear Clear  
Wind Chill: 55°   Ceiling: Unl
Heat Index: 55°   Visibility: 10mi
Dew Point: 36°   Wind: 9mph
Humidity: 48%   Direction: 330°NNW
Pressure: 29.82"   Gusts: 17mph
Location:  44.48°N, 85.92°W
Report Text: KFKS 260111Z AUTO 33008G15KT 10SM CLR 13/02 A2982 RMK AO2 T01300023
Loading
Personal Weather Stations






























Interactive Weather Map
Tropical Storm Tracking
New forecast layout! Learn more

10-Day Weather Forecast

Advertisements
Track Severe Weather on mobile